Time;durP1;ratioP1;P1;durP2;ratioP2;P2;SDS_P1;SDS_P2;PMS_P1;PMS_P2;Temp;Humidity;BMP_temperature;BMP_pressure;BME280_temperature;BME280_humidity;BME280_pressure;Samples;Min_cycle;Max_cycle;Signal;HPM_P1;HPM_P2
2021/10/25 00:01:02;;;;;;;37.15;23.10;;;;;;;5.39;100.00;101798.38;5013366;28;20462;-63
2021/10/25 00:03:28;;;;;;;38.28;23.90;;;;;;;5.34;100.00;101794.66;5013842;28;20087;-62
2021/10/25 00:05:53;;;;;;;38.95;23.17;;;;;;;5.31;100.00;101799.78;5013337;28;20416;-63
2021/10/25 00:08:18;;;;;;;37.67;22.92;;;;;;;5.32;100.00;101793.72;5013259;28;20025;-62
2021/10/25 00:10:45;;;;;;;39.33;23.73;;;;;;;5.24;100.00;101789.06;5013565;28;20150;-61
2021/10/25 00:13:10;;;;;;;39.47;23.70;;;;;;;5.21;100.00;101788.03;5013100;28;20033;-63
2021/10/25 00:15:37;;;;;;;39.08;23.02;;;;;;;5.19;100.00;101789.69;5013414;28;20030;-63
2021/10/25 00:18:03;;;;;;;39.80;24.67;;;;;;;5.14;100.00;101789.50;5013175;28;20049;-62
2021/10/25 00:20:29;;;;;;;38.38;24.08;;;;;;;5.14;100.00;101791.22;5013078;28;20080;-63
2021/10/25 00:22:55;;;;;;;40.78;24.17;;;;;;;5.17;100.00;101787.00;5013207;28;20046;-62
2021/10/25 00:25:20;;;;;;;39.58;24.77;;;;;;;5.08;100.00;101789.22;5012979;28;20477;-62
2021/10/25 00:27:46;;;;;;;38.80;24.13;;;;;;;4.95;100.00;101792.16;5012863;28;20468;-62
2021/10/25 00:30:11;;;;;;;39.72;24.38;;;;;;;5.01;100.00;101793.34;5013380;28;20053;-62
2021/10/25 00:32:37;;;;;;;41.50;24.65;;;;;;;4.97;100.00;101782.66;5012945;28;20024;-63
2021/10/25 00:35:03;;;;;;;39.15;23.90;;;;;;;4.99;100.00;101788.84;5013078;28;20025;-62
2021/10/25 00:37:29;;;;;;;40.28;23.80;;;;;;;4.93;100.00;101794.72;5013013;28;20116;-62
2021/10/25 00:39:54;;;;;;;38.88;24.08;;;;;;;4.92;100.00;101792.03;5012789;28;20117;-61
2021/10/25 00:42:19;;;;;;;38.92;23.08;;;;;;;4.92;100.00;101800.78;5012790;28;20113;-63
2021/10/25 00:44:45;;;;;;;39.92;24.75;;;;;;;4.94;100.00;101793.91;5013160;28;20116;-63
2021/10/25 00:47:10;;;;;;;38.92;24.05;;;;;;;4.94;100.00;101788.66;5012818;28;20018;-64
2021/10/25 00:49:36;;;;;;;38.55;23.30;;;;;;;4.95;100.00;101781.69;5012827;28;20034;-63
2021/10/25 00:52:02;;;;;;;41.92;24.40;;;;;;;4.92;100.00;101786.81;5012846;28;20030;-61
2021/10/25 00:54:28;;;;;;;37.08;22.63;;;;;;;4.88;100.00;101778.81;5012769;28;20068;-63
2021/10/25 00:56:53;;;;;;;37.78;23.35;;;;;;;4.95;100.00;101786.94;5012398;28;20029;-62
2021/10/25 00:59:19;;;;;;;38.15;23.25;;;;;;;4.94;100.00;101788.66;5012760;28;20018;-62
2021/10/25 01:01:45;;;;;;;37.47;22.75;;;;;;;5.01;100.00;101787.19;5012605;28;20068;-63
2021/10/25 01:04:11;;;;;;;36.38;22.98;;;;;;;5.05;100.00;101790.03;5013065;28;20022;-63
2021/10/25 01:06:38;;;;;;;37.92;22.30;;;;;;;5.12;100.00;101774.53;5012547;28;20381;-61
2021/10/25 01:09:04;;;;;;;38.10;21.92;;;;;;;5.10;100.00;101769.25;5012541;28;20025;-64
2021/10/25 01:11:31;;;;;;;36.25;22.38;;;;;;;5.10;100.00;101774.47;5012792;28;20037;-63
2021/10/25 01:13:57;;;;;;;37.15;22.55;;;;;;;5.03;100.00;101767.19;5012342;28;20469;-63
2021/10/25 01:16:23;;;;;;;38.85;23.60;;;;;;;5.13;100.00;101778.97;5012736;28;20041;-63
2021/10/25 01:18:49;;;;;;;37.60;22.38;;;;;;;5.17;100.00;101776.53;5012684;28;20022;-63
2021/10/25 01:21:15;;;;;;;36.40;22.20;;;;;;;5.19;100.00;101779.22;5012364;28;20037;-61
2021/10/25 01:23:40;;;;;;;37.60;21.85;;;;;;;5.22;100.00;101782.84;5012166;28;20045;-63
2021/10/25 01:26:07;;;;;;;36.60;21.75;;;;;;;5.26;100.00;101770.75;5012589;28;20036;-63
2021/10/25 01:28:32;;;;;;;36.83;21.33;;;;;;;5.24;100.00;101778.56;5012570;28;20030;-62
2021/10/25 01:30:58;;;;;;;37.80;22.02;;;;;;;5.31;100.00;101777.06;5012479;28;20454;-63
2021/10/25 01:33:24;;;;;;;36.65;21.58;;;;;;;5.35;100.00;101772.88;5012771;28;20026;-62
2021/10/25 01:35:49;;;;;;;34.88;21.38;;;;;;;5.36;100.00;101772.03;5012348;28;20029;-62
2021/10/25 01:38:16;;;;;;;35.70;21.90;;;;;;;5.39;100.00;101774.78;5012544;28;20034;-63
2021/10/25 01:40:41;;;;;;;36.00;21.13;;;;;;;5.38;100.00;101770.38;5012405;28;20026;-64
2021/10/25 01:43:07;;;;;;;36.97;21.55;;;;;;;5.44;100.00;101761.84;5012635;28;20034;-63
2021/10/25 01:45:33;;;;;;;34.85;20.02;;;;;;;5.48;100.00;101762.03;5012059;28;20454;-68
2021/10/25 01:47:58;;;;;;;34.50;20.65;;;;;;;5.48;100.00;101762.03;5012327;28;20099;-62
2021/10/25 01:50:24;;;;;;;34.92;20.58;;;;;;;5.48;100.00;101756.78;5012451;28;20034;-68
2021/10/25 01:52:50;;;;;;;35.10;19.92;;;;;;;5.54;100.00;101759.66;5012429;28;20022;-66
2021/10/25 01:55:16;;;;;;;33.80;19.48;;;;;;;5.59;100.00;101763.34;5012396;28;20064;-66
2021/10/25 01:57:41;;;;;;;34.70;19.23;;;;;;;5.62;100.00;101759.06;5012425;28;20398;-65
2021/10/25 02:00:08;;;;;;;36.42;20.40;;;;;;;5.69;100.00;101761.09;5012182;28;20029;-68
2021/10/25 02:02:33;;;;;;;35.67;19.52;;;;;;;5.77;100.00;101764.91;5012167;28;20033;-65
2021/10/25 02:05:01;;;;;;;34.42;18.58;;;;;;;5.78;100.00;101766.69;5011928;28;20026;-68
2021/10/25 02:07:27;;;;;;;34.97;19.77;;;;;;;5.84;100.00;101763.38;5012241;28;20149;-66
2021/10/25 02:09:52;;;;;;;33.72;18.15;;;;;;;5.87;100.00;101761.81;5014576;28;20484;-67
2021/10/25 02:12:18;;;;;;;33.90;18.73;;;;;;;5.89;100.00;101761.84;5015687;28;20030;-67
2021/10/25 02:14:43;;;;;;;34.17;19.02;;;;;;;5.90;100.00;101754.03;5015615;28;20029;-65
2021/10/25 02:17:09;;;;;;;33.60;18.25;;;;;;;5.96;100.00;101761.25;5015616;28;20018;-67
2021/10/25 02:19:34;;;;;;;34.13;19.08;;;;;;;5.99;100.00;101752.66;5015394;28;20116;-64
2021/10/25 02:22:00;;;;;;;31.98;17.80;;;;;;;6.07;100.00;101743.31;5015517;28;20469;-67
2021/10/25 02:24:25;;;;;;;34.17;18.92;;;;;;;6.12;100.00;101744.38;5015135;28;20088;-68
2021/10/25 02:26:50;;;;;;;32.22;17.65;;;;;;;6.16;100.00;101741.03;5015180;28;20029;-68
2021/10/25 02:29:16;;;;;;;33.78;18.20;;;;;;;6.20;100.00;101749.91;5015290;28;20034;-61
2021/10/25 02:31:42;;;;;;;32.72;17.65;;;;;;;6.23;100.00;101739.50;5014918;28;20018;-63
2021/10/25 02:34:07;;;;;;;32.53;17.67;;;;;;;6.26;100.00;101742.25;5015053;28;20159;-63
2021/10/25 02:36:33;;;;;;;33.10;16.70;;;;;;;6.28;100.00;101737.97;5015161;28;20018;-63
2021/10/25 02:38:58;;;;;;;32.88;17.77;;;;;;;6.32;100.00;101738.94;5015004;28;20104;-63
2021/10/25 02:41:24;;;;;;;32.03;17.15;;;;;;;6.31;100.00;101719.69;5014978;28;20037;-63
2021/10/25 02:43:50;;;;;;;33.13;17.08;;;;;;;6.35;100.00;101725.91;5015391;28;20072;-63
2021/10/25 02:46:15;;;;;;;33.78;17.35;;;;;;;6.34;100.00;101711.91;5014891;28;20029;-63
2021/10/25 02:48:43;;;;;;;32.42;16.92;;;;;;;6.41;100.00;101711.28;5015367;28;20026;-63
2021/10/25 02:51:08;;;;;;;31.73;16.67;;;;;;;6.42;100.00;101720.06;5015172;28;20022;-63
2021/10/25 02:53:34;;;;;;;33.72;17.60;;;;;;;6.44;100.00;101710.50;5015026;28;20029;-63
2021/10/25 02:55:59;;;;;;;35.22;17.10;;;;;;;6.47;100.00;101713.25;5015119;28;20865;-61
2021/10/25 02:58:25;;;;;;;31.42;16.42;;;;;;;6.54;100.00;101712.63;5014903;28;20048;-63
2021/10/25 03:00:50;;;;;;;33.92;17.67;;;;;;;6.55;100.00;101711.78;5014551;28;20105;-63
2021/10/25 03:03:15;;;;;;;32.60;16.80;;;;;;;6.56;100.00;101710.91;5013298;28;20041;-64
2021/10/25 03:05:41;;;;;;;32.08;16.02;;;;;;;6.57;100.00;101699.59;5014668;28;20071;-64
2021/10/25 03:08:07;;;;;;;32.33;16.83;;;;;;;6.56;100.00;101700.41;5014483;28;20454;-63
2021/10/25 03:10:32;;;;;;;32.00;16.55;;;;;;;6.62;100.00;101697.97;5014512;28;20029;-63
2021/10/25 03:12:58;;;;;;;32.38;16.83;;;;;;;6.65;100.00;101704.22;5014604;28;20034;-63
2021/10/25 03:15:23;;;;;;;31.08;16.55;;;;;;;6.63;100.00;101699.78;5014285;28;20030;-63
2021/10/25 03:17:49;;;;;;;32.40;16.50;;;;;;;6.70;100.00;101702.59;5014404;28;20026;-64
2021/10/25 03:20:15;;;;;;;33.55;16.92;;;;;;;6.68;100.00;101707.81;5014039;28;20095;-64
2021/10/25 03:22:41;;;;;;;31.00;16.30;;;;;;;6.69;100.00;101706.09;5014010;28;20042;-62
2021/10/25 03:25:08;;;;;;;35.10;16.65;;;;;;;6.72;100.00;101701.81;5010661;28;20037;-63
2021/10/25 03:27:34;;;;;;;31.52;15.88;;;;;;;6.73;100.00;101692.22;5014331;28;20080;-63
2021/10/25 03:30:00;;;;;;;32.83;16.20;;;;;;;6.76;100.00;101693.22;5013904;28;20105;-63
2021/10/25 03:32:26;;;;;;;31.73;16.92;;;;;;;6.78;100.00;101694.16;5014137;28;20029;-65
2021/10/25 03:34:51;;;;;;;31.08;15.52;;;;;;;6.85;100.00;101695.25;5013858;28;20112;-62
2021/10/25 03:37:18;;;;;;;31.75;16.48;;;;;;;6.86;100.00;101697.06;5014262;28;20454;-61
2021/10/25 03:39:46;;;;;;;31.83;15.82;;;;;;;6.89;100.00;101691.00;5014001;28;20060;-63
2021/10/25 03:42:21;;;;;;;29.10;15.43;;;;;;;6.92;100.00;101696.34;5013861;28;20029;-63
2021/10/25 03:44:51;;;;;;;30.50;15.95;;;;;;;6.97;100.00;101687.78;5013919;28;20084;-63
2021/10/25 03:47:25;;;;;;;31.25;15.32;;;;;;;7.00;100.00;101689.59;5014101;28;20096;-69
2021/10/25 03:50:00;;;;;;;29.83;15.25;;;;;;;6.98;100.00;101686.91;5014086;28;20117;-69
2021/10/25 04:29:36;;;;;;;31.17;15.68;;;;;;;7.20;100.00;101697.25;4991164;28;20030;-68
2021/10/25 04:32:06;;;;;;;29.38;14.65;;;;;;;7.17;100.00;101695.41;4990912;28;20037;-69
2021/10/25 04:34:35;;;;;;;30.95;15.15;;;;;;;7.20;100.00;101692.00;4998916;28;20041;-69
2021/10/25 04:37:01;;;;;;;28.63;14.55;;;;;;;7.20;100.00;101700.75;5012795;28;20037;-69
2021/10/25 04:39:27;;;;;;;30.42;15.48;;;;;;;7.22;100.00;101690.28;5013073;28;20030;-69
2021/10/25 04:41:52;;;;;;;30.00;15.18;;;;;;;7.24;100.00;101683.34;5013020;28;20029;-68
2021/10/25 04:44:18;;;;;;;31.00;15.23;;;;;;;7.24;100.00;101688.63;5013045;28;20062;-68
2021/10/25 04:46:43;;;;;;;30.63;15.15;;;;;;;7.27;100.00;101693.97;5013000;28;20029;-62
2021/10/25 04:49:08;;;;;;;29.98;14.20;;;;;;;7.27;100.00;101693.97;5012881;28;20030;-62
2021/10/25 04:51:34;;;;;;;29.65;14.48;;;;;;;7.28;100.00;101691.38;5012811;28;20053;-61
2021/10/25 04:54:01;;;;;;;31.13;14.90;;;;;;;7.28;100.00;101694.03;5012863;28;20088;-61
2021/10/25 04:56:27;;;;;;;30.40;14.98;;;;;;;7.30;100.00;101686.16;5012863;28;20053;-61
2021/10/25 04:58:52;;;;;;;29.40;14.27;;;;;;;7.30;100.00;101683.53;5012784;28;20461;-62
2021/10/25 05:01:18;;;;;;;32.15;15.25;;;;;;;7.32;100.00;101690.66;5013092;28;20381;-61
2021/10/25 05:03:43;;;;;;;31.40;14.55;;;;;;;7.33;100.00;101683.63;5012577;28;20025;-61
2021/10/25 05:06:16;;;;;;;29.85;14.23;;;;;;;7.32;100.00;101676.56;5012756;28;20032;-61
2021/10/25 05:08:41;;;;;;;28.13;13.55;;;;;;;7.33;100.00;101678.38;5009329;28;20101;-61
2021/10/25 05:11:06;;;;;;;27.55;13.13;;;;;;;7.33;100.00;101676.63;5012432;28;20516;-61
2021/10/25 05:13:32;;;;;;;33.03;16.50;;;;;;;7.38;100.00;101675.88;5012901;28;20040;-61
2021/10/25 05:15:57;;;;;;;29.75;14.40;;;;;;;7.40;100.00;101675.09;5012797;28;20022;-61
2021/10/25 05:18:22;;;;;;;27.92;13.43;;;;;;;7.42;100.00;101672.50;5012452;28;20032;-61
2021/10/25 05:20:48;;;;;;;28.70;14.05;;;;;;;7.43;100.00;101669.03;5012755;28;20454;-61
2021/10/25 05:23:13;;;;;;;28.70;14.63;;;;;;;7.41;100.00;101671.63;5012406;28;20092;-61
2021/10/25 05:25:40;;;;;;;32.22;13.77;;;;;;;7.45;100.00;101665.56;5012705;28;20025;-61
2021/10/25 05:28:06;;;;;;;29.00;14.57;;;;;;;7.44;100.00;101660.28;5012381;28;20080;-61
2021/10/25 05:30:31;;;;;;;27.98;13.73;;;;;;;7.43;100.00;101655.88;5012251;28;20108;-61
2021/10/25 05:32:56;;;;;;;31.45;14.50;;;;;;;7.42;100.00;101659.34;5012153;28;20492;-62
2021/10/25 05:35:24;;;;;;;30.35;14.48;;;;;;;7.39;100.00;101661.88;5013426;28;20034;-63
2021/10/25 05:37:49;;;;;;;29.33;14.05;;;;;;;7.40;100.00;101658.44;5014122;28;20029;-61
2021/10/25 05:40:15;;;;;;;28.10;13.52;;;;;;;7.38;100.00;101660.09;5014336;28;20029;-63
2021/10/25 05:42:40;;;;;;;29.55;13.82;;;;;;;7.40;100.00;101655.78;5016054;28;20018;-63
2021/10/25 05:45:06;;;;;;;31.33;14.98;;;;;;;7.35;100.00;101658.25;5014392;28;20061;-63
2021/10/25 05:47:32;;;;;;;30.95;14.45;;;;;;;7.38;100.00;101655.72;5019086;28;20462;-63
2021/10/25 05:49:58;;;;;;;28.80;14.38;;;;;;;7.36;100.00;101651.28;5011655;28;20026;-63
2021/10/25 05:52:24;;;;;;;30.60;13.98;;;;;;;7.35;100.00;101649.47;5021919;28;20033;-62
2021/10/25 05:54:50;;;;;;;29.92;14.07;;;;;;;7.38;100.00;101645.19;5011640;28;20018;-62
2021/10/25 05:57:17;;;;;;;28.27;13.70;;;;;;;7.38;100.00;101655.72;5013510;28;20421;-62
2021/10/25 05:59:42;;;;;;;28.38;13.85;;;;;;;7.39;100.00;101656.63;5017073;28;20104;-62
2021/10/25 06:02:34;;;;;;;28.42;14.18;;;;;;;7.41;100.00;101647.94;5013300;28;20129;-63
2021/10/25 06:05:00;;;;;;;28.42;13.23;;;;;;;7.44;100.00;101647.13;5013823;28;20079;-62
2021/10/25 06:07:25;;;;;;;28.17;13.38;;;;;;;7.42;100.00;101640.94;5014820;28;20113;-63
2021/10/25 06:09:50;;;;;;;29.55;13.85;;;;;;;7.46;100.00;101643.69;5016916;28;20397;-62
2021/10/25 06:12:20;;;;;;;29.00;13.60;;;;;;;7.48;100.00;101646.38;5009963;28;20045;-62
2021/10/25 06:14:47;;;;;;;27.48;13.30;;;;;;;7.51;100.00;101654.34;5010578;28;20351;-63
2021/10/25 06:17:26;;;;;;;27.75;13.20;;;;;;;7.48;100.00;101644.66;5011104;28;20064;-63
2021/10/25 06:19:52;;;;;;;28.23;13.68;;;;;;;7.54;100.00;101657.06;5013778;28;20357;-63
2021/10/25 06:22:19;;;;;;;28.13;13.05;;;;;;;7.54;100.00;101643.91;5017936;28;20032;-64
2021/10/25 06:24:48;;;;;;;29.30;12.90;;;;;;;7.55;100.00;101650.09;5010906;28;20042;-62
2021/10/25 06:27:14;;;;;;;30.27;13.23;;;;;;;7.58;100.00;101651.06;5017854;28;20025;-61
2021/10/25 06:29:40;;;;;;;28.17;13.32;;;;;;;7.59;100.00;101650.22;5012474;28;20029;-62
2021/10/25 06:32:05;;;;;;;28.75;12.98;;;;;;;7.62;100.00;101649.41;5011539;28;20385;-63
2021/10/25 06:34:50;;;;;;;27.60;13.52;;;;;;;7.66;100.00;101652.19;5014592;28;20038;-63
2021/10/25 06:37:18;;;;;;;29.08;13.90;;;;;;;7.70;100.00;101665.44;5010919;28;20066;-62
2021/10/25 06:39:52;;;;;;;28.20;13.00;;;;;;;7.76;100.00;101661.25;5011686;28;20029;-62
2021/10/25 06:42:18;;;;;;;27.08;12.95;;;;;;;7.75;100.00;101662.09;5007064;28;20358;-62
2021/10/25 06:44:50;;;;;;;27.52;13.57;;;;;;;7.82;100.00;101663.13;5015146;28;20030;-62
2021/10/25 06:47:15;;;;;;;28.00;13.40;;;;;;;7.88;100.00;101662.41;5007561;28;20038;-63
2021/10/25 06:49:55;;;;;;;28.10;12.80;;;;;;;7.95;98.45;101669.66;5015899;28;20117;-60
2021/10/25 06:52:21;;;;;;;29.17;12.70;;;;;;;8.00;97.79;101662.78;4999441;28;20485;-62
2021/10/25 06:54:46;;;;;;;28.48;12.60;;;;;;;8.06;97.23;101662.94;5014284;28;20042;-62
2021/10/25 06:57:12;;;;;;;25.95;12.32;;;;;;;8.16;94.69;101656.19;5015710;28;20453;-61
2021/10/25 06:59:37;;;;;;;27.92;12.77;;;;;;;8.18;96.36;101657.13;5010359;28;20025;-61
2021/10/25 07:02:03;;;;;;;26.80;12.35;;;;;;;8.23;95.80;101655.53;5014818;28;20036;-61
2021/10/25 07:04:29;;;;;;;27.40;13.10;;;;;;;8.29;96.13;101660.94;5013304;28;20421;-63
2021/10/25 07:06:55;;;;;;;27.08;12.32;;;;;;;8.33;94.46;101665.44;5015279;28;20034;-63
2021/10/25 07:09:21;;;;;;;26.80;12.07;;;;;;;8.33;93.49;101661.91;5019840;28;20061;-63
2021/10/25 07:11:46;;;;;;;27.40;12.55;;;;;;;8.29;94.75;101663.56;5007599;28;20476;-63
2021/10/25 07:14:15;;;;;;;25.27;11.73;;;;;;;8.36;93.90;101664.66;5005729;28;20408;-61
2021/10/25 07:16:48;;;;;;;25.42;11.85;;;;;;;8.36;94.42;101662.00;5009733;28;20038;-61
2021/10/25 08:10:41;;;;;;;28.45;12.75;;;;;;;9.12;90.88;101685.91;4949742;29;20439;-61
2021/10/25 08:13:15;;;;;;;26.55;11.98;;;;;;;9.14;92.27;101692.09;4960605;28;20045;-62
2021/10/25 08:15:44;;;;;;;27.35;12.23;;;;;;;9.17;90.59;101686.88;4961432;28;20379;-62
2021/10/25 08:20:55;;;;;;;25.77;12.07;;;;;;;9.17;89.89;101692.16;4963153;28;20038;-62
2021/10/25 08:23:21;;;;;;;26.77;11.93;;;;;;;9.19;90.23;101689.59;4961451;28;20043;-62
2021/10/25 08:25:47;;;;;;;28.10;12.55;;;;;;;9.19;91.35;101693.09;4962341;28;20051;-64
2021/10/25 08:28:12;;;;;;;26.67;11.82;;;;;;;9.26;90.17;101686.19;4963132;28;20043;-64
2021/10/25 08:30:38;;;;;;;28.45;11.82;;;;;;;9.25;91.22;101687.09;4974278;28;20034;-64
2021/10/25 08:40:40;;;;;;;27.05;12.77;;;;;;;9.38;91.77;101689.13;5010505;28;20500;-65
2021/10/25 08:43:07;;;;;;;28.67;12.80;;;;;;;9.46;89.71;101689.31;5012911;28;20021;-67
2021/10/25 08:45:33;;;;;;;26.52;12.23;;;;;;;9.48;90.55;101684.06;5012695;28;20030;-63
2021/10/25 08:48:01;;;;;;;27.00;11.65;;;;;;;9.53;89.17;101683.31;5013221;28;20030;-65
2021/10/25 08:50:30;;;;;;;27.92;13.15;;;;;;;9.57;89.49;101686.91;5013127;28;20144;-63
2021/10/25 08:52:57;;;;;;;27.67;12.93;;;;;;;9.56;88.96;101685.13;5012837;28;20033;-67
2021/10/25 08:55:22;;;;;;;27.13;12.25;;;;;;;9.61;89.37;101683.50;5013031;28;20087;-68
2021/10/25 08:57:50;;;;;;;26.05;12.07;;;;;;;9.60;87.84;101682.59;5012720;28;20014;-68
2021/10/25 09:00:21;;;;;;;27.60;12.77;;;;;;;9.63;88.64;101681.75;5012686;28;20397;-66
2021/10/25 09:03:01;;;;;;;25.97;11.90;;;;;;;9.71;89.13;101680.19;5012776;28;20033;-68
2021/10/25 09:05:26;;;;;;;29.45;12.25;;;;;;;9.76;87.42;101677.63;5012923;28;20073;-69
2021/10/25 09:07:55;;;;;;;28.50;12.60;;;;;;;9.80;87.59;101683.84;5013016;28;20054;-67
2021/10/25 09:10:29;;;;;;;27.95;12.43;;;;;;;9.83;88.30;101684.84;5012665;28;20388;-70
2021/10/25 09:13:02;;;;;;;27.25;12.13;;;;;;;9.88;87.74;101684.91;5012772;28;20042;-68
2021/10/25 09:15:30;;;;;;;26.73;11.77;;;;;;;9.92;86.82;101684.13;5013053;28;20113;-69
2021/10/25 09:18:07;;;;;;;26.33;12.13;;;;;;;9.93;88.08;101686.81;5013890;28;20236;-69
2021/10/25 09:20:41;;;;;;;29.33;12.50;;;;;;;10.01;86.98;101672.84;5011870;28;20038;-69
2021/10/25 09:23:11;;;;;;;26.63;12.20;;;;;;;10.10;87.06;101668.63;5013241;28;20440;-68
2021/10/25 09:25:37;;;;;;;26.77;12.27;;;;;;;10.19;86.48;101672.31;5016496;28;20088;-69
2021/10/25 09:28:21;;;;;;;26.90;12.23;;;;;;;10.24;85.38;101676.81;5016447;28;20022;-65
2021/10/25 09:30:52;;;;;;;27.23;12.40;;;;;;;10.30;87.20;101676.94;5014447;28;20392;-68
2021/10/25 09:33:21;;;;;;;27.33;11.82;;;;;;;10.43;85.47;101662.22;5016730;28;20085;-69
2021/10/25 09:35:53;;;;;;;26.23;11.70;;;;;;;10.53;85.35;101670.31;5016522;28;20076;-69
2021/10/25 09:49:07;;;;;;;26.88;11.90;;;;;;;11.09;81.51;101667.72;5013954;28;20037;-68
2021/10/25 09:51:32;;;;;;;26.75;11.98;;;;;;;11.04;83.61;101660.56;5013853;28;20461;-69
2021/10/25 09:53:59;;;;;;;25.75;11.63;;;;;;;11.08;82.50;101670.34;5014072;28;20160;-69
2021/10/25 09:56:32;;;;;;;26.85;11.95;;;;;;;11.06;83.12;101665.03;5013876;28;20116;-70
2021/10/25 10:01:41;;;;;;;25.73;11.82;;;;;;;11.16;83.70;101660.78;5013806;28;19936;-63
2021/10/25 10:04:07;;;;;;;26.45;12.02;;;;;;;11.29;82.95;101661.84;5013841;28;20053;-63
2021/10/25 10:06:32;;;;;;;25.42;11.68;;;;;;;11.62;83.24;101660.50;5013582;28;20451;-62
2021/10/25 10:08:59;;;;;;;26.35;11.90;;;;;;;11.95;81.11;101659.19;5013673;28;20113;-65
2021/10/25 10:11:25;;;;;;;26.88;10.90;;;;;;;12.04;78.64;101654.00;5013669;28;20169;-63
2021/10/25 10:13:51;;;;;;;25.38;11.02;;;;;;;12.15;79.13;101662.97;5013459;28;20034;-65
2021/10/25 10:16:16;;;;;;;27.10;11.20;;;;;;;12.26;78.63;101662.19;5013353;28;20022;-65
2021/10/25 10:18:49;;;;;;;25.20;11.00;;;;;;;12.43;76.83;101665.88;5015599;28;20041;-62
2021/10/25 10:21:15;;;;;;;28.67;10.93;;;;;;;12.24;78.48;101659.50;5012383;28;20022;-64
2021/10/25 10:23:47;;;;;;;26.08;10.55;;;;;;;11.94;78.77;101658.31;5015348;28;20084;-62
2021/10/25 10:26:15;;;;;;;24.63;10.27;;;;;;;11.84;80.14;101657.28;5011669;28;20060;-63
2021/10/25 10:28:47;;;;;;;25.85;10.90;;;;;;;11.82;80.89;101661.69;5011666;28;20393;-66
2021/10/25 10:31:20;;;;;;;26.88;11.32;;;;;;;11.81;79.88;101665.19;5011454;28;20033;-62
2021/10/25 10:33:47;;;;;;;;;;;;;;;11.93;79.79;101660.91;5012462;28;20458;-62
2021/10/25 10:36:18;;;;;;;25.17;11.02;;;;;;;11.79;81.00;101660.75;5015383;28;19910;-65
2021/10/25 10:38:46;;;;;;;27.03;11.37;;;;;;;11.81;80.96;101669.56;5012151;28;20026;-65
2021/10/25 10:41:14;;;;;;;24.58;10.45;;;;;;;11.86;79.92;101663.47;5011637;28;20054;-66
2021/10/25 10:43:40;;;;;;;24.25;10.85;;;;;;;11.79;81.53;101664.25;5007592;28;20023;-64
2021/10/25 10:46:16;;;;;;;25.30;10.75;;;;;;;11.96;80.77;101661.88;5006438;28;20041;-67
2021/10/25 10:48:44;;;;;;;26.50;10.85;;;;;;;12.17;80.34;101660.31;5011216;28;20037;-62
2021/10/25 10:51:15;;;;;;;25.83;10.63;;;;;;;12.41;78.68;101658.78;5007466;28;20397;-63
2021/10/25 10:54:01;;;;;;;25.67;10.45;;;;;;;12.50;77.54;101659.78;5006720;28;20377;-62
2021/10/25 10:56:30;;;;;;;24.73;10.27;;;;;;;12.54;77.59;101660.69;5012966;28;20041;-64
2021/10/25 11:01:30;;;;;;;25.65;10.95;;;;;;;12.64;78.04;101662.56;5015040;28;20038;-64
2021/10/25 11:04:01;;;;;;;24.23;10.05;;;;;;;12.66;78.30;101651.97;5014826;28;20107;-65
2021/10/25 11:06:34;;;;;;;26.80;10.48;;;;;;;12.61;77.56;101651.03;5014598;28;20036;-63
2021/10/25 11:09:09;;;;;;;25.00;10.27;;;;;;;12.83;78.35;101663.59;5014789;28;20022;-62
2021/10/25 11:11:37;;;;;;;23.95;9.65;;;;;;;12.99;77.60;101655.75;5014355;28;20033;-63
2021/10/25 11:14:04;;;;;;;23.83;10.32;;;;;;;13.08;76.39;101653.16;5014304;28;20543;-63
2021/10/25 11:16:41;;;;;;;24.88;10.90;;;;;;;13.18;75.60;101649.69;5014540;28;20045;-62
2021/10/25 11:19:09;;;;;;;25.17;10.70;;;;;;;13.37;76.04;101644.53;5014471;28;20032;-62
2021/10/25 11:21:52;;;;;;;26.13;10.93;;;;;;;13.46;74.75;101641.91;5014264;28;20088;-62
2021/10/25 11:24:18;;;;;;;24.08;10.25;;;;;;;13.25;75.35;101651.50;5011132;28;20083;-62
2021/10/25 11:26:46;;;;;;;24.73;10.52;;;;;;;13.11;75.77;101650.53;5014229;28;20030;-62
2021/10/25 11:29:16;;;;;;;25.08;10.40;;;;;;;13.15;77.01;101648.78;5012632;28;20025;-63
2021/10/25 11:31:53;;;;;;;23.95;9.65;;;;;;;13.29;75.77;101646.22;5015478;28;20049;-62
2021/10/25 11:34:27;;;;;;;23.98;10.10;;;;;;;13.42;74.89;101637.47;5017247;28;20519;-63
2021/10/25 11:36:53;;;;;;;24.70;10.57;;;;;;;13.38;73.77;101643.63;5006470;28;20164;-64
2021/10/25 11:39:27;;;;;;;25.20;10.35;;;;;;;13.32;74.49;101640.91;5012197;28;20113;-63
2021/10/25 11:41:52;;;;;;;24.10;10.32;;;;;;;13.16;75.91;101635.50;5007569;28;20042;-62
2021/10/25 11:44:18;;;;;;;23.27;9.82;;;;;;;13.14;76.18;101629.31;5006921;28;20022;-61
2021/10/25 11:46:44;;;;;;;24.15;10.18;;;;;;;13.07;76.54;101635.47;5012960;28;20034;-62
2021/10/25 11:49:10;;;;;;;25.52;11.07;;;;;;;13.28;75.52;101628.50;5010154;28;20022;-61
2021/10/25 11:51:49;;;;;;;26.15;10.45;;;;;;;14.08;74.30;101618.22;5017153;28;20120;-61
2021/10/25 11:54:14;;;;;;;23.40;10.27;;;;;;;16.21;66.05;101609.81;5017961;28;20568;-62
2021/10/25 11:56:47;;;;;;;24.80;9.75;;;;;;;17.12;60.07;101613.50;5005777;28;20146;-63
2021/10/25 11:59:12;;;;;;;;;;;;;;;16.78;63.52;101611.13;5016249;28;20126;-62
2021/10/25 12:01:38;;;;;;;23.65;9.45;;;;;;;16.70;60.78;101606.75;5006213;28;20521;-63
2021/10/25 12:04:05;;;;;;;22.73;9.55;;;;;;;17.81;57.72;101614.44;5011052;28;20022;-62
2021/10/25 12:06:31;;;;;;;23.75;9.77;;;;;;;18.20;57.55;101614.81;5014569;28;20069;-62
2021/10/25 12:09:03;;;;;;;24.80;9.48;;;;;;;18.01;57.20;101607.03;5013088;28;20033;-63
2021/10/25 12:11:36;;;;;;;25.23;9.20;;;;;;;17.73;57.96;101609.19;5009997;28;20026;-62
2021/10/25 12:14:03;;;;;;;22.17;9.18;;;;;;;17.84;57.41;101607.25;5010396;28;20397;-63
2021/10/25 12:16:29;;;;;;;23.35;9.60;;;;;;;17.48;57.62;101597.94;5012993;28;20033;-63
2021/10/25 12:18:55;;;;;;;23.75;9.30;;;;;;;18.06;57.25;101605.19;5009277;28;20046;-63
2021/10/25 12:21:32;;;;;;;24.35;9.52;;;;;;;19.51;54.70;101608.03;5013114;28;20381;-62
2021/10/25 12:24:00;;;;;;;23.02;9.35;;;;;;;19.66;53.18;101611.31;5008971;28;20492;-62
2021/10/25 12:26:26;;;;;;;23.00;8.73;;;;;;;20.19;51.47;101611.91;5009181;28;20033;-63
2021/10/25 12:28:51;;;;;;;23.98;8.98;;;;;;;20.54;49.57;101601.22;5013307;28;20032;-63
2021/10/25 12:31:19;;;;;;;21.67;8.95;;;;;;;21.86;46.57;101594.00;5013174;28;20118;-64
2021/10/25 12:33:46;;;;;;;21.80;8.70;;;;;;;22.35;45.46;101588.00;5013225;28;20021;-62
2021/10/25 12:36:20;;;;;;;22.65;8.75;;;;;;;22.46;44.86;101588.53;5011902;28;20034;-63
2021/10/25 12:38:51;;;;;;;22.95;8.68;;;;;;;22.42;45.28;101587.72;5013535;28;20057;-63
2021/10/25 12:41:16;;;;;;;22.55;8.60;;;;;;;22.19;43.51;101596.56;5013177;28;20025;-63
2021/10/25 12:43:47;;;;;;;22.42;8.95;;;;;;;21.32;46.70;101597.38;5013146;28;20072;-63
2021/10/25 12:46:19;;;;;;;24.25;8.57;;;;;;;20.06;48.67;101590.78;5013120;28;20041;-63
2021/10/25 12:48:54;;;;;;;23.08;9.00;;;;;;;18.87;52.96;101588.72;5012941;28;20029;-64
2021/10/25 12:51:22;;;;;;;22.02;9.10;;;;;;;18.10;54.52;101580.16;5012788;28;20533;-62
2021/10/25 12:53:51;;;;;;;22.75;9.40;;;;;;;17.41;58.06;101592.66;5012690;28;20550;-62
2021/10/25 12:56:30;;;;;;;23.42;9.10;;;;;;;17.34;58.78;101588.28;5013028;28;20030;-62
2021/10/25 12:59:06;;;;;;;22.98;9.32;;;;;;;17.44;59.62;101594.41;5009104;28;20608;-62
2021/10/25 13:01:33;;;;;;;23.88;9.52;;;;;;;17.19;60.43;101588.47;5009686;28;20026;-64
2021/10/25 13:04:01;;;;;;;22.95;9.52;;;;;;;17.19;59.55;101583.13;5012868;28;20551;-62
2021/10/25 13:06:34;;;;;;;23.10;9.70;;;;;;;16.47;61.92;101582.03;5009073;28;20037;-62
2021/10/25 13:09:01;;;;;;;22.23;9.65;;;;;;;16.08;64.79;101584.13;5009466;28;20022;-62